Time;durP1;ratioP1;P1;durP2;ratioP2;P2;SDS_P1;SDS_P2;PMS_P1;PMS_P2;Temp;Humidity;BMP_temperature;BMP_pressure;BME280_temperature;BME280_humidity;BME280_pressure;Samples;Min_cycle;Max_cycle;Signal;HPM_P1;HPM_P2
2022/04/09 00:00:13;;;;;;;9.88;6.03;;;;;;;;;;4977297;28;20074;-69
2022/04/09 00:02:39;;;;;;;7.78;5.38;;;;;;;;;;4977262;28;20029;-68
2022/04/09 00:05:05;;;;;;;6.22;4.53;;;;;;;;;;4977284;28;20026;-70
2022/04/09 00:07:30;;;;;;;6.65;4.82;;;;;;;;;;4977751;28;20073;-69
2022/04/09 00:09:56;;;;;;;7.03;4.72;;;;;;;;;;4977956;28;20548;-69
2022/04/09 00:12:21;;;;;;;7.82;4.75;;;;;;;;;;4977605;28;20019;-69
2022/04/09 00:14:47;;;;;;;5.78;4.20;;;;;;;;;;4977069;28;20482;-69
2022/04/09 00:17:12;;;;;;;5.28;4.20;;;;;;;;;;4977263;28;20475;-69
2022/04/09 00:19:37;;;;;;;5.60;4.22;;;;;;;;;;4977183;28;20035;-69
2022/04/09 00:22:03;;;;;;;4.22;3.78;;;;;;;;;;4976995;28;20403;-69
2022/04/09 00:24:29;;;;;;;4.40;3.42;;;;;;;;;;4977066;28;20534;-69
2022/04/09 00:26:54;;;;;;;3.78;3.47;;;;;;;;;;4976920;28;20102;-69
2022/04/09 00:29:20;;;;;;;8.27;5.32;;;;;;;;;;4976857;28;20038;-69
2022/04/09 00:31:45;;;;;;;5.22;4.05;;;;;;;;;;4976751;28;20039;-70
2022/04/09 00:34:11;;;;;;;5.85;4.13;;;;;;;;;;4959374;28;20368;-70
2022/04/09 00:36:36;;;;;;;4.85;4.38;;;;;;;;;;4976988;28;20061;-71
2022/04/09 00:39:02;;;;;;;7.88;5.10;;;;;;;;;;4959208;28;20039;-70
2022/04/09 00:41:27;;;;;;;12.43;7.25;;;;;;;;;;4976716;28;20027;-70
2022/04/09 00:43:53;;;;;;;9.18;6.10;;;;;;;;;;4959223;28;20022;-70
2022/04/09 00:46:18;;;;;;;8.20;5.38;;;;;;;;;;4976476;28;20023;-70
2022/04/09 00:48:44;;;;;;;7.45;5.00;;;;;;;;;;4959347;28;20041;-70
2022/04/09 00:51:09;;;;;;;6.93;4.60;;;;;;;;;;4976418;28;20026;-70
2022/04/09 00:53:36;;;;;;;8.73;5.80;;;;;;;;;;4976352;28;20031;-70
2022/04/09 00:56:16;;;;;;;8.63;5.10;;;;;;;;;;4959031;28;20402;-70
2022/04/09 00:58:47;;;;;;;7.00;5.20;;;;;;;;;;4942697;28;20031;-71
2022/04/09 01:01:14;;;;;;;5.75;4.70;;;;;;;;;;4976318;28;20129;-70
2022/04/09 01:03:40;;;;;;;7.50;4.28;;;;;;;;;;4958837;28;20030;-69
2022/04/09 01:06:06;;;;;;;6.72;4.95;;;;;;;;;;4976423;28;20105;-69
2022/04/09 01:08:32;;;;;;;4.70;4.30;;;;;;;;;;4976361;28;20109;-68
2022/04/09 01:10:57;;;;;;;5.07;4.18;;;;;;;;;;4958695;28;20086;-69
2022/04/09 01:13:24;;;;;;;4.47;4.07;;;;;;;;;;4959361;28;20022;-64
2022/04/09 01:15:50;;;;;;;5.15;4.57;;;;;;;;;;4942655;28;20125;-65
2022/04/09 01:18:15;;;;;;;7.28;5.80;;;;;;;;;;4976087;28;20471;-64
2022/04/09 01:20:44;;;;;;;15.20;11.07;;;;;;;;;;4958534;28;20073;-64
2022/04/09 01:23:09;;;;;;;6.40;5.43;;;;;;;;;;4975914;28;20042;-64
2022/04/09 01:25:37;;;;;;;3.67;3.38;;;;;;;;;;4975659;28;20070;-63
2022/04/09 01:28:04;;;;;;;4.45;3.65;;;;;;;;;;4958418;28;20043;-63
2022/04/09 01:30:29;;;;;;;3.92;3.50;;;;;;;;;;4958152;28;20034;-65
2022/04/09 01:32:55;;;;;;;3.75;3.42;;;;;;;;;;4975653;28;20023;-64
2022/04/09 01:35:20;;;;;;;144.02;93.18;;;;;;;;;;4958195;28;20033;-65
2022/04/09 01:37:46;;;;;;;11.88;10.48;;;;;;;;;;4958123;28;20031;-64
2022/04/09 01:40:11;;;;;;;5.45;4.20;;;;;;;;;;4958336;28;20026;-65
2022/04/09 01:42:40;;;;;;;33.30;28.63;;;;;;;;;;4958111;28;20050;-66
2022/04/09 01:45:06;;;;;;;12.93;11.63;;;;;;;;;;4975388;28;20069;-63
2022/04/09 01:47:33;;;;;;;3.50;3.03;;;;;;;;;;4958523;28;20030;-63
2022/04/09 01:49:59;;;;;;;3.75;3.45;;;;;;;;;;4975630;28;20066;-63
2022/04/09 01:52:24;;;;;;;4.38;3.75;;;;;;;;;;4958608;28;20053;-64
2022/04/09 01:54:50;;;;;;;4.78;3.63;;;;;;;;;;4957959;28;20062;-63
2022/04/09 01:57:16;;;;;;;4.10;3.53;;;;;;;;;;4957815;28;20023;-64
2022/04/09 01:59:43;;;;;;;6.57;4.47;;;;;;;;;;4957838;28;20399;-63
2022/04/09 02:02:09;;;;;;;5.15;4.40;;;;;;;;;;4957929;28;20475;-63
2022/04/09 02:04:36;;;;;;;5.80;4.38;;;;;;;;;;4957750;28;20039;-63
2022/04/09 02:07:01;;;;;;;6.75;5.38;;;;;;;;;;4941887;28;20023;-63
2022/04/09 02:09:28;;;;;;;4.55;4.15;;;;;;;;;;4941622;28;20368;-64
2022/04/09 02:11:54;;;;;;;4.22;3.83;;;;;;;;;;4941836;28;20037;-63
2022/04/09 02:14:19;;;;;;;4.35;3.95;;;;;;;;;;4957650;28;20027;-63
2022/04/09 02:16:45;;;;;;;4.60;3.90;;;;;;;;;;4975010;28;20046;-63
2022/04/09 02:19:10;;;;;;;4.20;3.90;;;;;;;;;;4957566;28;20086;-62
2022/04/09 02:21:36;;;;;;;4.53;3.35;;;;;;;;;;4957494;28;20069;-63
2022/04/09 02:24:02;;;;;;;4.18;3.80;;;;;;;;;;4975047;28;20469;-63
2022/04/09 02:26:28;;;;;;;3.78;3.47;;;;;;;;;;4957510;28;20043;-63
2022/04/09 02:28:54;;;;;;;5.10;4.28;;;;;;;;;;4941609;28;20121;-63
2022/04/09 02:31:22;;;;;;;4.35;4.03;;;;;;;;;;4954052;29;20043;-63
2022/04/09 02:33:48;;;;;;;4.25;3.92;;;;;;;;;;4954251;29;20036;-63
2022/04/09 02:36:15;;;;;;;4.15;3.85;;;;;;;;;;4954611;29;20403;-63
2022/04/09 02:38:42;;;;;;;4.15;3.78;;;;;;;;;;4954163;29;20031;-65
2022/04/09 02:41:11;;;;;;;4.25;3.90;;;;;;;;;;4954138;29;20019;-63
2022/04/09 02:43:37;;;;;;;4.40;4.10;;;;;;;;;;4954138;29;20027;-63
2022/04/09 02:46:03;;;;;;;4.88;4.47;;;;;;;;;;4955839;28;20030;-63
2022/04/09 02:48:32;;;;;;;4.28;3.90;;;;;;;;;;4954493;29;20122;-63
2022/04/09 02:50:57;;;;;;;5.68;3.70;;;;;;;;;;4954110;29;20480;-63
2022/04/09 02:53:24;;;;;;;4.20;3.80;;;;;;;;;;4955620;28;20089;-63
2022/04/09 02:55:50;;;;;;;4.60;4.20;;;;;;;;;;4954485;29;20038;-64
2022/04/09 02:58:15;;;;;;;4.10;3.70;;;;;;;;;;4954455;29;20031;-65
2022/04/09 03:00:43;;;;;;;4.20;3.90;;;;;;;;;;4953928;29;20019;-64
2022/04/09 03:03:10;;;;;;;5.10;4.60;;;;;;;;;;4953990;28;20031;-63
2022/04/09 03:05:42;;;;;;;6.07;4.53;;;;;;;;;;4939045;29;20030;-63
2022/04/09 03:08:08;;;;;;;5.70;5.10;;;;;;;;;;4954468;29;20035;-63
2022/04/09 03:10:33;;;;;;;5.65;5.15;;;;;;;;;;4954267;29;20026;-63
2022/04/09 03:12:59;;;;;;;5.38;4.88;;;;;;;;;;4955231;28;20034;-63
2022/04/09 03:15:26;;;;;;;5.13;4.70;;;;;;;;;;4937904;29;20396;-64
2022/04/09 03:17:53;;;;;;;5.65;5.05;;;;;;;;;;4953858;29;20031;-63
2022/04/09 03:20:20;;;;;;;7.75;6.13;;;;;;;;;;4954482;28;20018;-63
2022/04/09 03:22:47;;;;;;;6.75;6.05;;;;;;;;;;4957525;29;20059;-63
2022/04/09 03:25:17;;;;;;;6.63;5.88;;;;;;;;;;4957738;29;20532;-63
2022/04/09 03:27:46;;;;;;;8.38;6.13;;;;;;;;;;4942079;29;20444;-62
2022/04/09 03:30:11;;;;;;;6.93;6.15;;;;;;;;;;4965551;28;20097;-63
2022/04/09 03:32:38;;;;;;;7.50;6.57;;;;;;;;;;4960761;28;20030;-63
2022/04/09 03:35:07;;;;;;;7.18;6.57;;;;;;;;;;4960804;28;20030;-64
2022/04/09 03:37:36;;;;;;;7.57;6.88;;;;;;;;;;4960819;28;20117;-64
2022/04/09 03:40:04;;;;;;;7.65;6.90;;;;;;;;;;4977852;28;20023;-63
2022/04/09 03:42:31;;;;;;;7.55;6.85;;;;;;;;;;4960322;28;20044;-63
2022/04/09 03:44:56;;;;;;;7.10;6.50;;;;;;;;;;4960323;28;20021;-64
2022/04/09 03:47:22;;;;;;;7.43;6.75;;;;;;;;;;4944365;28;20059;-64
2022/04/09 03:49:49;;;;;;;7.55;6.85;;;;;;;;;;4960228;28;20029;-63
2022/04/09 03:52:14;;;;;;;8.88;7.35;;;;;;;;;;4960171;28;20035;-65
2022/04/09 03:54:40;;;;;;;9.20;8.35;;;;;;;;;;4977670;28;20379;-64
2022/04/09 03:57:07;;;;;;;7.45;6.78;;;;;;;;;;4960130;28;20031;-65
2022/04/09 03:59:44;;;;;;;14.60;13.20;;;;;;;;;;4960077;28;20022;-65
2022/04/09 04:02:10;;;;;;;21.52;19.15;;;;;;;;;;4974220;23;20070;-69
2022/04/09 04:04:37;;;;;;;9.38;8.57;;;;;;;;;;4941202;29;20031;-65
2022/04/09 04:07:02;;;;;;;9.18;6.82;;;;;;;;;;4957932;29;20016;-64
2022/04/09 04:09:27;;;;;;;7.07;6.45;;;;;;;;;;4941315;29;20027;-65
2022/04/09 04:11:56;;;;;;;7.55;6.80;;;;;;;;;;4940436;29;20090;-64
2022/04/09 04:14:25;;;;;;;7.22;6.53;;;;;;;;;;4940652;29;20087;-63
2022/04/09 04:16:51;;;;;;;6.25;5.55;;;;;;;;;;4940559;29;20026;-64
2022/04/09 04:19:17;;;;;;;6.05;5.45;;;;;;;;;;4957753;29;20417;-65
2022/04/09 04:21:44;;;;;;;5.18;4.57;;;;;;;;;;4940648;29;20071;-65
2022/04/09 04:24:10;;;;;;;3.67;3.38;;;;;;;;;;4957673;29;20023;-64
2022/04/09 04:26:36;;;;;;;3.20;3.00;;;;;;;;;;4940386;29;20039;-65
2022/04/09 04:29:10;;;;;;;2.85;2.65;;;;;;;;;;4941506;29;20507;-65
2022/04/09 04:31:36;;;;;;;2.70;2.50;;;;;;;;;;4957508;28;20106;-63
2022/04/09 04:34:03;;;;;;;2.63;2.42;;;;;;;;;;4940535;29;20019;-65
2022/04/09 04:36:33;;;;;;;2.42;2.28;;;;;;;;;;4940224;29;20039;-65
2022/04/09 04:38:58;;;;;;;2.90;2.70;;;;;;;;;;4957391;29;20034;-66
2022/04/09 04:41:24;;;;;;;37.15;18.98;;;;;;;;;;4940040;29;20086;-70
2022/04/09 04:43:52;;;;;;;2.47;2.28;;;;;;;;;;4940383;29;20031;-70
2022/04/09 04:46:19;;;;;;;2.17;2.08;;;;;;;;;;4939848;29;20019;-69
2022/04/09 04:48:46;;;;;;;2.33;2.17;;;;;;;;;;4939883;29;20383;-70
2022/04/09 04:51:11;;;;;;;2.58;2.40;;;;;;;;;;4940462;29;20025;-71
2022/04/09 04:53:37;;;;;;;6.20;5.65;;;;;;;;;;4957338;29;20039;-67
2022/04/09 04:56:04;;;;;;;4.95;4.45;;;;;;;;;;4939848;29;20030;-67
2022/04/09 04:58:46;;;;;;;72.93;47.85;;;;;;;;;;4939733;29;20069;-68
2022/04/09 05:01:13;;;;;;;31.38;22.80;;;;;;;;;;4956753;29;20058;-67
2022/04/09 05:03:43;;;;;;;;;;;;;;;;;;4940134;29;20094;-67
2022/04/09 05:06:16;;;;;;;6.88;6.28;;;;;;;;;;4924776;29;19911;-71
2022/04/09 05:08:43;;;;;;;10.43;9.35;;;;;;;;;;4939611;29;20035;-71
2022/04/09 05:11:14;;;;;;;11.57;10.48;;;;;;;;;;4939505;29;20026;-70
2022/04/09 05:13:39;;;;;;;49.05;43.67;;;;;;;;;;4923679;29;20392;-71
2022/04/09 05:16:06;;;;;;;14.88;13.57;;;;;;;;;;4939382;29;20495;-70
2022/04/09 05:18:37;;;;;;;5.90;5.50;;;;;;;;;;4939691;29;20556;-70
2022/04/09 05:21:02;;;;;;;5.07;4.68;;;;;;;;;;4939272;29;20126;-70
2022/04/09 05:23:29;;;;;;;2.80;2.67;;;;;;;;;;4939274;29;20475;-70
2022/04/09 05:25:55;;;;;;;2.38;2.17;;;;;;;;;;4939273;29;20046;-69
2022/04/09 05:28:20;;;;;;;2.10;2.00;;;;;;;;;;4923810;29;20027;-70
2022/04/09 05:30:50;;;;;;;2.05;1.92;;;;;;;;;;4939143;29;20034;-70
2022/04/09 05:33:16;;;;;;;41.33;19.55;;;;;;;;;;4956668;29;20360;-71
2022/04/09 05:35:47;;;;;;;6.45;4.03;;;;;;;;;;4939129;29;20039;-70
2022/04/09 05:38:12;;;;;;;2.08;1.88;;;;;;;;;;4939395;29;20054;-69
2022/04/09 05:40:39;;;;;;;6.95;4.50;;;;;;;;;;4956382;29;20019;-70
2022/04/09 05:43:18;;;;;;;52.60;20.10;;;;;;;;;;4928988;28;20027;-70
2022/04/09 05:45:45;;;;;;;55.75;20.95;;;;;;;;;;4935054;29;20038;-70
2022/04/09 05:48:13;;;;;;;37.83;13.23;;;;;;;;;;4935692;29;20031;-69
2022/04/09 05:50:52;;;;;;;1.38;1.17;;;;;;;;;;4935146;29;20566;-70
2022/04/09 05:53:19;;;;;;;0.98;0.88;;;;;;;;;;4935287;29;20035;-70
2022/04/09 05:55:46;;;;;;;1.23;1.13;;;;;;;;;;4938907;29;20019;-70
2022/04/09 05:58:12;;;;;;;109.00;39.63;;;;;;;;;;4938295;29;20435;-70
2022/04/09 06:00:39;;;;;;;4.32;2.95;;;;;;;;;;4938420;29;20078;-70
2022/04/09 06:03:17;;;;;;;2.05;1.75;;;;;;;;;;4938722;29;20023;-70
2022/04/09 06:05:43;;;;;;;11.45;6.03;;;;;;;;;;4938953;29;20048;-70
2022/04/09 06:08:17;;;;;;;5.75;3.50;;;;;;;;;;4927706;29;20094;-72
2022/04/09 06:10:42;;;;;;;5.55;2.97;;;;;;;;;;4935810;29;20038;-70
2022/04/09 06:13:07;;;;;;;13.88;7.03;;;;;;;;;;4935532;29;20023;-70
2022/04/09 06:15:34;;;;;;;7.50;4.85;;;;;;;;;;4934655;29;20492;-70
2022/04/09 06:18:06;;;;;;;9.77;3.95;;;;;;;;;;4934967;29;20123;-70
2022/04/09 06:20:33;;;;;;;3.25;2.55;;;;;;;;;;4936182;29;20027;-70
2022/04/09 06:22:59;;;;;;;6.85;2.55;;;;;;;;;;4936963;29;20019;-72
2022/04/09 06:25:26;;;;;;;11.43;4.65;;;;;;;;;;4935225;29;20456;-70
2022/04/09 06:27:51;;;;;;;7.40;3.17;;;;;;;;;;4934337;29;20023;-71
2022/04/09 06:30:17;;;;;;;8.20;3.22;;;;;;;;;;4933960;29;20043;-70
2022/04/09 06:32:53;;;;;;;5.78;3.22;;;;;;;;;;4934500;29;20027;-71
2022/04/09 06:35:19;;;;;;;4.38;3.00;;;;;;;;;;4933399;29;20399;-70
2022/04/09 06:37:44;;;;;;;8.95;3.85;;;;;;;;;;4932651;29;20029;-71
2022/04/09 06:40:12;;;;;;;5.03;2.85;;;;;;;;;;4934167;29;20083;-64
2022/04/09 06:42:38;;;;;;;4.88;2.78;;;;;;;;;;4932750;29;20126;-65
2022/04/09 06:45:18;;;;;;;2.65;2.10;;;;;;;;;;4950055;29;20037;-64
2022/04/09 06:48:19;;;;;;;;;;;;;;;;;;4871982;29;20069;-64
2022/04/09 06:51:08;;;;;;;2.28;1.88;;;;;;;;;;4929143;29;19953;-64
2022/04/09 06:53:34;;;;;;;14.15;7.68;;;;;;;;;;4933008;29;20454;-64
2022/04/09 06:56:00;;;;;;;20.80;11.90;;;;;;;;;;4935904;29;20019;-65
2022/04/09 06:58:25;;;;;;;531.53;268.98;;;;;;;;;;4938162;29;20106;-65
2022/04/09 07:00:50;;;;;;;149.02;75.22;;;;;;;;;;4938162;29;20026;-64
2022/04/09 07:03:16;;;;;;;264.13;135.35;;;;;;;;;;4938229;29;20035;-64
2022/04/09 07:05:41;;;;;;;345.52;188.95;;;;;;;;;;4955756;29;20026;-65
2022/04/09 07:08:08;;;;;;;53.67;28.55;;;;;;;;;;4955155;29;20031;-64
2022/04/09 07:10:33;;;;;;;10.57;7.25;;;;;;;;;;4956112;29;20027;-64
2022/04/09 07:12:59;;;;;;;30.67;17.67;;;;;;;;;;4938326;29;20185;-65
2022/04/09 07:15:24;;;;;;;274.95;153.85;;;;;;;;;;4955484;29;20526;-65
2022/04/09 07:17:49;;;;;;;13.93;10.07;;;;;;;;;;4951517;29;20432;-63
2022/04/09 07:20:15;;;;;;;328.23;223.15;;;;;;;;;;4955615;29;20059;-64
2022/04/09 07:22:40;;;;;;;164.63;99.70;;;;;;;;;;4955117;29;20042;-64
2022/04/09 07:25:06;;;;;;;527.13;394.00;;;;;;;;;;4955424;29;20467;-63
2022/04/09 07:27:35;;;;;;;464.25;366.02;;;;;;;;;;4955055;29;20410;-63
2022/04/09 07:30:01;;;;;;;12.70;11.27;;;;;;;;;;4938117;29;20112;-70
2022/04/09 07:32:26;;;;;;;10.75;8.63;;;;;;;;;;4955197;29;20042;-70
2022/04/09 07:34:51;;;;;;;86.93;66.03;;;;;;;;;;4955206;29;20125;-70
2022/04/09 07:37:17;;;;;;;28.95;25.85;;;;;;;;;;4954937;29;20038;-70
2022/04/09 07:39:42;;;;;;;21.50;19.25;;;;;;;;;;4955051;29;20029;-70
2022/04/09 07:42:08;;;;;;;4.97;4.55;;;;;;;;;;4954943;29;20031;-70
2022/04/09 07:44:33;;;;;;;34.33;14.48;;;;;;;;;;4954856;29;20518;-70
2022/04/09 07:46:59;;;;;;;18.60;9.90;;;;;;;;;;4954981;29;20127;-70
2022/04/09 07:49:24;;;;;;;31.13;16.77;;;;;;;;;;4937431;29;20085;-70
2022/04/09 07:51:49;;;;;;;80.03;39.92;;;;;;;;;;4954662;29;20031;-69
2022/04/09 07:54:15;;;;;;;21.15;10.50;;;;;;;;;;4955012;29;20042;-70
2022/04/09 07:56:40;;;;;;;279.10;102.53;;;;;;;;;;4954955;29;20030;-71
2022/04/09 07:59:05;;;;;;;266.33;109.68;;;;;;;;;;4954472;29;20019;-72
2022/04/09 08:01:31;;;;;;;30.08;15.90;;;;;;;;;;4954500;29;20051;-71
2022/04/09 08:03:56;;;;;;;213.65;78.90;;;;;;;;;;4954702;29;20031;-70
2022/04/09 08:06:22;;;;;;;79.97;27.90;;;;;;;;;;4954618;28;20035;-71
2022/04/09 08:08:47;;;;;;;8.55;4.15;;;;;;;;;;4953420;29;20058;-71
2022/04/09 08:11:12;;;;;;;26.50;11.65;;;;;;;;;;4954520;29;20047;-70
2022/04/09 08:13:38;;;;;;;6.10;4.05;;;;;;;;;;4954585;29;20039;-71
2022/04/09 08:16:04;;;;;;;213.10;71.78;;;;;;;;;;4954789;29;20114;-70
2022/04/09 08:18:29;;;;;;;7.22;4.32;;;;;;;;;;4954528;29;20440;-71
2022/04/09 08:20:55;;;;;;;209.27;59.65;;;;;;;;;;4954847;29;20053;-71
2022/04/09 08:23:20;;;;;;;19.15;7.75;;;;;;;;;;4954669;29;20050;-71
2022/04/09 08:25:45;;;;;;;11.00;4.47;;;;;;;;;;4954464;29;20094;-71
2022/04/09 08:28:11;;;;;;;17.97;8.33;;;;;;;;;;4936442;29;20030;-71
2022/04/09 08:30:38;;;;;;;22.75;7.60;;;;;;;;;;4954418;29;20286;-71
2022/04/09 08:33:07;;;;;;;44.35;14.52;;;;;;;;;;4954394;29;20023;-71
2022/04/09 08:35:32;;;;;;;279.50;75.05;;;;;;;;;;4954222;29;20031;-70
2022/04/09 08:37:58;;;;;;;43.17;11.23;;;;;;;;;;4937127;29;20494;-70
2022/04/09 08:40:24;;;;;;;79.93;22.40;;;;;;;;;;4954643;29;20118;-70
2022/04/09 08:42:49;;;;;;;8.75;4.57;;;;;;;;;;4953702;29;20039;-71
2022/04/09 08:45:15;;;;;;;15.07;5.97;;;;;;;;;;4936716;29;20051;-71
2022/04/09 08:47:41;;;;;;;20.98;7.45;;;;;;;;;;4953688;29;20036;-71
2022/04/09 08:50:09;;;;;;;6.13;4.05;;;;;;;;;;4936081;29;20027;-70
2022/04/09 08:52:37;;;;;;;32.13;11.35;;;;;;;;;;4953980;29;20031;-71
2022/04/09 08:55:02;;;;;;;7.55;5.43;;;;;;;;;;4954335;29;20054;-70
2022/04/09 08:57:28;;;;;;;111.63;38.63;;;;;;;;;;4953285;29;20175;-66
2022/04/09 08:59:54;;;;;;;17.77;9.48;;;;;;;;;;4953545;29;20399;-66
2022/04/09 09:02:20;;;;;;;4.63;3.70;;;;;;;;;;4953591;29;20047;-66
2022/04/09 09:04:45;;;;;;;15.90;7.63;;;;;;;;;;4953447;29;20460;-66
2022/04/09 09:07:21;;;;;;;7.03;4.10;;;;;;;;;;4953413;29;20122;-66
2022/04/09 09:09:47;;;;;;;3.40;3.10;;;;;;;;;;4936490;29;20050;-66
2022/04/09 09:12:25;;;;;;;4.60;3.35;;;;;;;;;;4935917;29;20470;-65
2022/04/09 09:18:25;;;;;;;4.60;3.72;;;;;;;;;;4953276;28;20026;-60
2022/04/09 09:20:52;;;;;;;4.95;4.32;;;;;;;;;;4952723;29;20035;-62
2022/04/09 09:26:27;;;;;;;4.35;3.30;;;;;;;;;;4934165;28;20066;-63
2022/04/09 09:28:55;;;;;;;5.05;3.88;;;;;;;;;;4945662;29;20039;-59
2022/04/09 09:31:41;;;;;;;3.72;3.35;;;;;;;;;;4953272;29;20128;-59
2022/04/09 09:34:10;;;;;;;3.10;2.65;;;;;;;;;;4954387;29;20391;-59
2022/04/09 09:36:38;;;;;;;3.90;3.33;;;;;;;;;;4954534;29;20510;-59
2022/04/09 09:39:04;;;;;;;7.57;3.88;;;;;;;;;;4954090;29;20042;-59
2022/04/09 09:41:29;;;;;;;5.75;4.15;;;;;;;;;;4954114;29;20388;-59
2022/04/09 09:44:04;;;;;;;4.35;3.22;;;;;;;;;;4954121;29;20041;-59
2022/04/09 09:46:30;;;;;;;6.25;3.95;;;;;;;;;;4937070;29;20023;-59
2022/04/09 09:48:56;;;;;;;4.38;3.22;;;;;;;;;;4953231;29;20497;-59
2022/04/09 09:51:23;;;;;;;3.47;3.17;;;;;;;;;;4952758;29;20047;-60
2022/04/09 09:53:48;;;;;;;4.25;3.22;;;;;;;;;;4952832;29;20030;-60
2022/04/09 09:56:14;;;;;;;3.17;2.88;;;;;;;;;;4952556;29;20395;-60
2022/04/09 09:58:40;;;;;;;3.78;3.30;;;;;;;;;;4952364;29;20102;-59
2022/04/09 10:01:05;;;;;;;3.80;3.42;;;;;;;;;;4952448;29;20394;-59
2022/04/09 10:03:31;;;;;;;3.67;3.33;;;;;;;;;;4952486;29;20061;-59
2022/04/09 10:05:56;;;;;;;4.22;3.83;;;;;;;;;;4966383;28;20039;-59
2022/04/09 10:08:21;;;;;;;4.50;4.00;;;;;;;;;;4966155;28;20034;-59
2022/04/09 10:10:48;;;;;;;3.95;3.58;;;;;;;;;;4951537;29;20094;-60
2022/04/09 10:13:21;;;;;;;5.55;4.15;;;;;;;;;;4934327;29;20129;-59
2022/04/09 10:15:50;;;;;;;5.78;3.97;;;;;;;;;;4951108;29;20601;-59
2022/04/09 10:18:19;;;;;;;7.47;3.70;;;;;;;;;;4950765;29;20102;-59
2022/04/09 10:20:45;;;;;;;3.88;3.58;;;;;;;;;;4965733;28;20037;-60
2022/04/09 10:23:13;;;;;;;4.03;3.65;;;;;;;;;;4951539;29;20029;-59
2022/04/09 10:25:41;;;;;;;7.93;3.80;;;;;;;;;;4946587;29;20074;-62
2022/04/09 10:28:08;;;;;;;6.57;4.18;;;;;;;;;;4930453;29;20035;-62
2022/04/09 10:30:40;;;;;;;3.80;3.15;;;;;;;;;;4931402;29;20129;-62
2022/04/09 10:33:22;;;;;;;3.38;3.10;;;;;;;;;;4932214;29;20035;-62
2022/04/09 10:35:48;;;;;;;3.60;3.03;;;;;;;;;;4931972;29;20042;-62
2022/04/09 10:38:17;;;;;;;4.43;2.67;;;;;;;;;;4931670;29;20024;-62
2022/04/09 10:40:42;;;;;;;3.28;2.78;;;;;;;;;;4931833;29;20038;-62
2022/04/09 10:43:08;;;;;;;4.47;3.43;;;;;;;;;;4931983;29;20024;-62
2022/04/09 10:45:53;;;;;;;4.55;3.92;;;;;;;;;;4931668;29;20632;-62
2022/04/09 10:48:27;;;;;;;3.90;3.40;;;;;;;;;;4931470;29;20034;-62
2022/04/09 10:51:06;;;;;;;2.00;1.75;;;;;;;;;;4931716;29;20132;-62
2022/04/09 10:53:36;;;;;;;3.47;3.17;;;;;;;;;;4931668;29;20078;-62
2022/04/09 10:56:13;;;;;;;3.80;3.25;;;;;;;;;;4931807;29;20158;-62
2022/04/09 10:58:57;;;;;;;3.38;3.03;;;;;;;;;;4931560;29;20028;-62
2022/04/09 11:01:41;;;;;;;2.92;2.42;;;;;;;;;;4931554;29;20035;-62
2022/04/09 11:04:25;;;;;;;3.22;2.92;;;;;;;;;;4931876;29;20032;-62
2022/04/09 11:07:02;;;;;;;3.58;3.08;;;;;;;;;;4931748;29;20062;-62
2022/04/09 11:09:48;;;;;;;3.25;2.67;;;;;;;;;;4931262;29;20365;-64
2022/04/09 11:12:14;;;;;;;4.53;3.40;;;;;;;;;;4931509;29;20435;-64
2022/04/09 11:14:43;;;;;;;3.92;3.00;;;;;;;;;;4931667;29;20032;-64
2022/04/09 11:17:25;;;;;;;3.88;3.58;;;;;;;;;;4931574;29;20484;-64
2022/04/09 11:19:50;;;;;;;3.33;3.03;;;;;;;;;;4931641;29;20046;-65
2022/04/09 11:22:16;;;;;;;3.42;2.42;;;;;;;;;;4931354;29;20458;-64
2022/04/09 11:24:41;;;;;;;2.67;2.08;;;;;;;;;;4936980;29;20063;-64
2022/04/09 11:27:07;;;;;;;2.63;2.35;;;;;;;;;;4951398;29;20391;-64
2022/04/09 11:29:33;;;;;;;2.55;2.35;;;;;;;;;;4951178;29;20060;-64
2022/04/09 11:31:59;;;;;;;2.35;2.10;;;;;;;;;;4951488;29;20026;-64
2022/04/09 11:34:25;;;;;;;2.85;1.85;;;;;;;;;;4950515;29;20043;-64
2022/04/09 11:36:52;;;;;;;2.65;2.45;;;;;;;;;;4950487;29;20092;-64
2022/04/09 11:39:17;;;;;;;3.55;2.15;;;;;;;;;;4950357;29;20131;-67
2022/04/09 11:41:46;;;;;;;4.18;2.47;;;;;;;;;;4951680;28;20130;-69
2022/04/09 11:44:25;;;;;;;3.17;2.17;;;;;;;;;;4954055;29;20114;-71
2022/04/09 11:46:50;;;;;;;2.83;2.53;;;;;;;;;;4968756;28;20035;-63
2022/04/09 11:49:18;;;;;;;4.55;2.55;;;;;;;;;;4953726;29;20027;-74
2022/04/09 11:51:52;;;;;;;4.72;3.20;;;;;;;;;;4936921;29;20039;-77
2022/04/09 11:54:18;;;;;;;3.10;2.80;;;;;;;;;;4968830;28;20093;-77
2022/04/09 11:56:43;;;;;;;2.83;2.20;;;;;;;;;;4954663;29;20467;-78
2022/04/09 11:59:10;;;;;;;4.03;2.75;;;;;;;;;;4954958;29;20035;-78
2022/04/09 12:01:36;;;;;;;3.25;2.03;;;;;;;;;;4953723;29;20547;-77
2022/04/09 12:04:02;;;;;;;2.42;2.22;;;;;;;;;;4968590;28;20110;-77
2022/04/09 12:06:27;;;;;;;3.00;2.70;;;;;;;;;;4953620;29;20020;-77
2022/04/09 12:08:53;;;;;;;2.60;2.40;;;;;;;;;;4953369;29;20031;-77
2022/04/09 12:11:19;;;;;;;4.28;2.50;;;;;;;;;;4953695;29;20102;-76
2022/04/09 12:13:45;;;;;;;3.80;2.83;;;;;;;;;;4953601;29;20059;-76
2022/04/09 12:16:10;;;;;;;3.25;2.60;;;;;;;;;;4968306;28;20027;-76
2022/04/09 12:18:36;;;;;;;4.72;2.42;;;;;;;;;;4953603;29;20032;-75
2022/04/09 12:21:22;;;;;;;2.20;2.05;;;;;;;;;;4953406;29;20027;-76
2022/04/09 12:23:58;;;;;;;1.88;1.77;;;;;;;;;;4953448;29;20035;-76
2022/04/09 12:26:25;;;;;;;3.30;2.47;;;;;;;;;;4968010;28;20481;-76
2022/04/09 12:29:13;;;;;;;3.58;2.15;;;;;;;;;;4953272;29;20110;-71
2022/04/09 12:31:39;;;;;;;3.22;2.50;;;;;;;;;;4930851;29;20400;-71
2022/04/09 12:34:05;;;;;;;4.05;2.88;;;;;;;;;;4953761;29;20042;-71
2022/04/09 12:36:31;;;;;;;3.05;2.13;;;;;;;;;;4968116;28;20082;-71
2022/04/09 12:38:56;;;;;;;2.55;2.33;;;;;;;;;;4953940;29;20547;-71
2022/04/09 12:41:21;;;;;;;2.40;2.10;;;;;;;;;;4937005;29;20047;-71
2022/04/09 12:43:47;;;;;;;2.65;2.05;;;;;;;;;;4954088;29;20445;-71
2022/04/09 12:46:16;;;;;;;2.78;2.33;;;;;;;;;;4953928;29;20436;-71
2022/04/09 12:48:43;;;;;;;3.03;2.42;;;;;;;;;;4953916;29;20031;-71
2022/04/09 12:51:08;;;;;;;2.60;2.10;;;;;;;;;;4953711;29;20466;-71
2022/04/09 12:53:34;;;;;;;3.00;1.90;;;;;;;;;;4953659;28;20051;-71
2022/04/09 12:56:03;;;;;;;1.90;1.80;;;;;;;;;;4953825;29;20471;-71
2022/04/09 12:58:28;;;;;;;3.20;2.05;;;;;;;;;;4953679;29;20039;-70
2022/04/09 13:00:53;;;;;;;3.35;2.20;;;;;;;;;;4953860;29;20035;-71
2022/04/09 13:03:19;;;;;;;2.83;2.10;;;;;;;;;;4953841;29;20027;-70
2022/04/09 13:05:44;;;;;;;4.07;2.60;;;;;;;;;;4968408;28;20039;-71
2022/04/09 13:08:09;;;;;;;3.83;2.72;;;;;;;;;;4953652;29;20126;-70
2022/04/09 13:10:35;;;;;;;3.08;2.47;;;;;;;;;;4953717;29;20475;-70
2022/04/09 13:13:00;;;;;;;1.77;1.67;;;;;;;;;;4953502;29;20031;-71
2022/04/09 13:15:26;;;;;;;1.30;1.20;;;;;;;;;;4968322;28;20497;-70
2022/04/09 13:17:51;;;;;;;2.00;1.80;;;;;;;;;;4953193;29;20038;-70
2022/04/09 13:20:18;;;;;;;3.63;2.63;;;;;;;;;;4953073;29;20468;-71
2022/04/09 13:22:43;;;;;;;3.88;2.50;;;;;;;;;;4953307;29;20031;-70
2022/04/09 13:25:09;;;;;;;6.30;3.55;;;;;;;;;;4953049;29;20043;-71
2022/04/09 13:27:35;;;;;;;5.38;3.25;;;;;;;;;;4953162;29;20443;-70
2022/04/09 13:30:01;;;;;;;3.10;1.85;;;;;;;;;;4953034;29;20095;-70
2022/04/09 13:32:26;;;;;;;5.93;2.28;;;;;;;;;;4953205;29;20031;-70
2022/04/09 13:34:51;;;;;;;1.33;1.20;;;;;;;;;;4953192;29;20031;-71
2022/04/09 13:37:19;;;;;;;2.22;1.30;;;;;;;;;;4935747;29;20170;-70
2022/04/09 13:39:45;;;;;;;1.80;1.38;;;;;;;;;;4967510;28;20120;-71
2022/04/09 13:42:10;;;;;;;2.75;2.00;;;;;;;;;;4952920;29;20168;-71
2022/04/09 13:44:38;;;;;;;2.67;2.17;;;;;;;;;;4952914;29;20481;-71
2022/04/09 13:47:05;;;;;;;2.38;2.17;;;;;;;;;;4953149;29;20039;-72
2022/04/09 13:49:30;;;;;;;3.00;2.70;;;;;;;;;;4952640;29;20102;-72
2022/04/09 13:51:56;;;;;;;3.78;3.20;;;;;;;;;;4951408;29;20166;-71
2022/04/09 13:54:21;;;;;;;4.53;3.00;;;;;;;;;;4967554;28;20035;-71
2022/04/09 13:56:49;;;;;;;3.08;2.75;;;;;;;;;;4967498;28;20050;-71
2022/04/09 13:59:15;;;;;;;2.03;1.92;;;;;;;;;;4967193;28;20484;-66
2022/04/09 14:01:40;;;;;;;5.20;3.95;;;;;;;;;;4952447;29;20038;-62
2022/04/09 14:04:05;;;;;;;5.57;3.25;;;;;;;;;;4952639;28;20132;-62
2022/04/09 14:06:31;;;;;;;4.63;3.10;;;;;;;;;;4950677;29;20038;-62
2022/04/09 14:08:56;;;;;;;3.45;3.15;;;;;;;;;;4952001;29;20500;-62
2022/04/09 14:11:22;;;;;;;4.68;3.15;;;;;;;;;;4951776;29;20562;-62
2022/04/09 14:13:48;;;;;;;2.88;2.47;;;;;;;;;;4951637;29;20031;-62
2022/04/09 14:16:13;;;;;;;3.85;2.92;;;;;;;;;;4951645;29;20035;-62
2022/04/09 14:18:39;;;;;;;4.68;2.90;;;;;;;;;;4952277;29;20360;-62
2022/04/09 14:21:04;;;;;;;3.45;2.92;;;;;;;;;;4951530;29;20491;-62
2022/04/09 14:23:29;;;;;;;3.15;2.30;;;;;;;;;;4951685;29;20480;-61
2022/04/09 14:25:55;;;;;;;2.58;1.98;;;;;;;;;;4951086;29;20118;-62
2022/04/09 14:28:24;;;;;;;3.45;2.80;;;;;;;;;;4951401;29;20023;-61
2022/04/09 14:30:49;;;;;;;4.82;2.30;;;;;;;;;;4951410;29;20436;-62
2022/04/09 14:33:14;;;;;;;4.95;3.55;;;;;;;;;;4951442;29;20106;-72
2022/04/09 14:35:40;;;;;;;4.28;3.40;;;;;;;;;;4951474;29;20037;-71
2022/04/09 14:38:05;;;;;;;3.10;2.80;;;;;;;;;;4951338;29;20023;-72
2022/04/09 14:40:31;;;;;;;4.78;3.15;;;;;;;;;;4951554;29;20074;-71
2022/04/09 14:42:57;;;;;;;3.30;3.00;;;;;;;;;;4951859;29;20079;-71
2022/04/09 14:45:23;;;;;;;2.63;2.42;;;;;;;;;;4951536;29;20031;-71